Flight Track Log - Related Links

Times and Time Zones

All times are in EDT time to prevent confusion due to time zone crossing. See the DAL3759 flight status page for this flight to view local times or setup timezone preferences in your user account.

Time Position Orientation Groundspeed Altitude Reporting Facility
EDT Latitude Longitude Course Direction KTS MPH feet Rate Location/Type
Sun 01:46:02 PM 44.6994 -85.6689 213° Southwest 264 304 4,900  Level Minneapolis Center
Sun 01:47:03 PM 44.6433 -85.5917 136° Southeast 279 321 7,000 2,585 Climbing Minneapolis Center
Sun 01:48:00 PM 44.4782 -85.3101 138° Southeast  Level FlightAware Approximate
Sun 01:48:05 PM 44.5681 -85.4883 136° Southeast 306 352 10,200  Level Minneapolis Center
Sun 01:49:00 PM 44.4180 -85.2350 138° Southeast  Level FlightAware Approximate
Sun 01:49:07 PM 44.4997 -85.3933 135° Southeast 334 384 11,400  Level Minneapolis Center
Sun 01:50:00 PM 44.3567 -85.1475 134° Southeast  Level FlightAware Approximate
Sun 01:50:09 PM 44.4225 -85.2861 135° Southeast 376 433 13,100  Level Minneapolis Center
Sun 01:51:11 PM 44.3447 -85.1786 135° Southeast 391 450 14,800 1,610 Climbing Minneapolis Center
Sun 01:52:12 PM 44.2667 -85.0706 135° Southeast 395 455 16,400 1,415 Climbing Minneapolis Center
Sun 01:53:14 PM 44.1864 -84.9617 136° Southeast 400 460 17,700 1,210 Climbing Minneapolis Center
Sun 01:54:16 PM 44.1039 -84.8489 136° Southeast 410 472 18,900 629 Climbing Minneapolis Center
Sun 01:55:18 PM 44.0028 -84.7111 136° Southeast 420 483 19,000 49 Climbing Minneapolis Center
Sun 01:56:19 PM 43.9231 -84.6031 136° Southeast 426 490 19,000  Level Minneapolis Center
Sun 01:57:21 PM 43.8389 -84.4886 136° Southeast 426 490 19,000  Level Minneapolis Center
Sun 01:58:23 PM 43.7542 -84.3747 136° Southeast 424 488 19,000  Level Minneapolis Center
Sun 01:59:25 PM 43.6700 -84.2628 136° Southeast 422 486 19,000  Level Minneapolis Center
Sun 02:00:27 PM 43.5850 -84.1503 136° Southeast 423 487 19,000  Level Minneapolis Center
Sun 02:01:28 PM 43.4703 -84.0489 147° Southeast 418 481 19,000  Level Minneapolis Center
Sun 02:02:30 PM 43.3650 -83.9997 161° South 405 466 19,000  Level Minneapolis Center
Sun 02:03:32 PM 43.2589 -83.9511 162° South 404 465 19,000 -646 Level Minneapolis Center
Sun 02:04:40 PM 43.1275 -83.8917 162° South 402 463 17,600 -1,573 Descending Cleveland Center
Sun 02:05:15 PM 43.0678 -83.8658 162° South 400 460 16,300 -2,100 Descending Cleveland Center
Sun 02:05:40 PM 43.0267 -83.8494 164° South 402 463 15,500 -2,121 Descending Cleveland Center
Sun 02:06:54 PM 42.9117 -83.7839 157° South 369 425 12,800 -1,750 Descending Cleveland Center
Sun 02:07:40 PM 42.8400 -83.7406 156° South 377 434 12,000 -716 Descending Cleveland Center
Sun 02:08:01 PM 42.8133 -83.7250 157° South 308 354 12,000 -400 Level Cleveland Center
Sun 02:08:40 PM 42.7683 -83.6972 156° South 332 382 11,600 -764 Descending Cleveland Center
Sun 02:08:56 PM 42.7519 -83.6878 157° South 250 288 11,300 -1,000 Descending Cleveland Center
Sun 02:09:40 PM 42.7047 -83.6572 155° Southeast 285 328 10,600 -1,164 Descending Cleveland Center
Sun 02:10:03 PM 42.6822 -83.6422 154° Southeast 254 292 10,000 -1,900 Descending Cleveland Center
Sun 02:10:40 PM 42.6392 -83.6144 155° Southeast 263 303 8,700 -2,250 Descending Cleveland Center
Sun 02:10:59 PM 42.6292 -83.5944 124° Southeast 262 302 7,900 -2,000 Descending Cleveland Center
Sun 02:11:40 PM 42.5931 -83.5419 133° Southeast 252 290 6,700 -1,672 Descending Cleveland Center
Sun 02:12:00 PM 42.5811 -83.5214 128° Southeast 255 293 6,200 -700 Descending Cleveland Center
Sun 02:12:40 PM 42.5681 -83.4561 105° East 246 283 6,000 -197 Descending Cleveland Center
Sun 02:13:01 PM 42.5731 -83.4225 79° East 257 296 6,000  Level Cleveland Center
Sun 02:13:40 PM 42.5747 -83.3606 88° East 229 264 6,000  Level Cleveland Center
Sun 02:14:03 PM 42.5817 -83.3269 74° East 256 295 6,000 -300 Level Cleveland Center
Sun 02:14:40 PM 42.5831 -83.2678 88° East 234 269 5,700 -787 Descending Cleveland Center
Sun 02:15:04 PM 42.5900 -83.2428 69° East 214 246 5,200 -1,291 Descending Cleveland Center
Sun 02:15:59 PM 42.5792 -83.1717 102° East 194 223 4,000 -621 Descending Cleveland Center
Sun 02:17:00 PM 42.5292 -83.1614 171° South 180 207 4,000  Level Cleveland Center
Sun 02:18:01 PM 42.4831 -83.1761 193° South 166 191 4,000  Level Cleveland Center
Sun 02:19:02 PM 42.4386 -83.2083 208° Southwest 170 196 4,000  Level Cleveland Center
Sun 02:20:04 PM 42.3983 -83.2403 210° Southwest 174 200 4,000 -279 Level Cleveland Center
Sun 02:21:11 PM 42.3494 -83.2747 208° Southwest 180 207 3,400 -537 Descending Cleveland Center

Login

Don't have an account? Register now (free) for customized features, flight alerts, and more!